Time;durP1;ratioP1;P1;durP2;ratioP2;P2;SDS_P1;SDS_P2;PMS_P1;PMS_P2;Temp;Humidity;BMP_temperature;BMP_pressure;BME280_temperature;BME280_humidity;BME280_pressure;Samples;Min_cycle;Max_cycle;Signal;HPM_P1;HPM_P2
2022/01/08 00:02:20;;;;;;;;;;;;;;;19.89;38.25;101113.31;7285373;19;152352;-51
2022/01/08 00:04:47;;;;;;;;;;;;;;;19.89;38.22;101116.09;7285015;19;153549;-51
2022/01/08 00:07:14;;;;;;;;;;;;;;;19.86;38.09;101103.50;7284036;19;154046;-52
2022/01/08 00:09:41;;;;;;;;;;;;;;;19.85;38.22;101109.44;7293025;19;151846;-51
2022/01/08 00:12:09;;;;;;;;;;;;;;;19.82;38.58;101105.25;7283022;19;153805;-51
2022/01/08 00:14:36;;;;;;;;;;;;;;;19.80;38.60;101112.31;7284390;19;152157;-51
2022/01/08 00:17:04;;;;;;;;;;;;;;;19.79;38.32;101117.06;7283876;19;153832;-52
2022/01/08 00:19:31;;;;;;;;;;;;;;;19.75;38.60;101106.75;7281436;19;152384;-52
2022/01/08 00:21:58;;;;;;;;;;;;;;;19.73;38.79;101107.03;7284347;19;151904;-52
2022/01/08 00:24:25;;;;;;;;;;;;;;;19.71;38.77;101106.53;7282319;19;153610;-51
2022/01/08 00:26:52;;;;;;;;;;;;;;;19.68;38.91;101101.50;7283903;19;154136;-52
2022/01/08 00:29:19;;;;;;;;;;;;;;;19.65;38.81;101101.25;7291426;19;151760;-51
2022/01/08 00:31:46;;;;;;;;;;;;;;;19.62;38.89;101096.25;7280343;19;154892;-51
2022/01/08 00:34:13;;;;;;;;;;;;;;;19.57;39.37;101099.97;7284088;19;152054;-51
2022/01/08 00:36:41;;;;;;;;;;;;;;;19.54;39.46;101092.97;7281711;19;154009;-51
2022/01/08 00:39:08;;;;;;;;;;;;;;;19.53;39.91;101094.09;7281444;19;154223;-51
2022/01/08 00:41:35;;;;;;;;;;;;;;;19.51;39.60;101092.75;7282638;19;151705;-51
2022/01/08 00:44:02;;;;;;;;;;;;;;;19.48;39.71;101098.94;7281479;19;153591;-51
2022/01/08 00:46:30;;;;;;;;;;;;;;;19.45;40.09;101096.72;7281128;19;153895;-51
2022/01/08 00:48:57;;;;;;;;;;;;;;;19.42;39.76;101097.28;7282554;19;152004;-51
2022/01/08 00:51:24;;;;;;;;;;;;;;;19.40;39.92;101094.78;7287847;19;153286;-51
2022/01/08 00:53:51;;;;;;;;;;;;;;;19.38;39.94;101101.81;7283090;19;152149;-51
2022/01/08 00:56:18;;;;;;;;;;;;;;;19.35;40.42;101105.22;7280544;19;152234;-52
2022/01/08 00:58:45;;;;;;;;;;;;;;;19.31;40.22;101095.72;7281685;19;154209;-51
2022/01/08 01:01:12;;;;;;;;;;;;;;;19.31;40.14;101095.72;7282805;19;152070;-52
2022/01/08 01:03:39;;;;;;;;;;;;;;;19.27;40.37;101094.66;7281897;19;153365;-51
2022/01/08 01:06:06;;;;;;;;;;;;;;;19.25;40.41;101085.72;7281276;19;154005;-51
2022/01/08 01:08:34;;;;;;;;;;;;;;;19.23;40.47;101083.22;7279072;19;154389;-51
2022/01/08 01:11:01;;;;;;;;;;;;;;;19.21;40.79;101067.84;7280437;19;152818;-52
2022/01/08 01:13:28;;;;;;;;;;;;;;;19.18;40.59;101074.84;7287568;19;154170;-51
2022/01/08 01:15:55;;;;;;;;;;;;;;;19.19;40.48;101058.88;7279524;19;151777;-52
2022/01/08 01:18:23;;;;;;;;;;;;;;;19.17;40.57;101055.56;7281201;19;153313;-52
2022/01/08 01:20:50;;;;;;;;;;;;;;;19.14;40.96;101050.53;7280253;19;152052;-51
2022/01/08 01:23:25;;;;;;;;;;;;;;;19.12;41.05;101055.63;7280733;19;151944;-51
2022/01/08 01:26:01;;;;;;;;;;;;;;;19.09;40.69;101046.66;7280597;19;154512;-52
2022/01/08 01:46:59;;;;;;;;;;;;;;;18.92;41.19;101051.06;7281002;19;153324;-51
2022/01/08 01:48:44;;;;;;;;;;;;;;;18.87;40.92;101042.69;7281020;19;152256;-51
2022/01/08 01:51:14;;;;;;;;;;;;;;;18.82;40.75;101037.16;7280144;19;152808;-51
2022/01/08 01:53:41;;;;;;;;;;;;;;;18.78;40.99;101033.28;7280056;19;153599;-51
2022/01/08 01:56:08;;;;;;;;;;;;;;;18.74;41.04;101023.78;7281925;19;152270;-51
2022/01/08 01:58:35;;;;;;;;;;;;;;;18.72;41.30;101020.44;7293013;19;152798;-52
2022/01/08 02:01:02;;;;;;;;;;;;;;;18.68;40.91;101025.81;7287020;19;152117;-51
2022/01/08 02:03:29;;;;;;;;;;;;;;;18.70;41.12;101025.53;7286673;19;152694;-51
2022/01/08 02:05:57;;;;;;;;;;;;;;;18.63;41.31;101031.44;7285463;19;152703;-51
2022/01/08 02:08:24;;;;;;;;;;;;;;;18.62;41.41;101025.00;7282953;19;152470;-51
2022/01/08 02:10:51;;;;;;;;;;;;;;;18.59;41.43;101039.59;7286768;19;152791;-51
2022/01/08 02:13:21;;;;;;;;;;;;;;;18.58;41.17;101034.28;7285261;19;153574;-52
2022/01/08 02:15:52;;;;;;;;;;;;;;;18.57;41.10;101033.47;7286173;19;152202;-52
2022/01/08 02:18:20;;;;;;;;;;;;;;;18.57;41.41;101038.22;7285233;19;152895;-52
2022/01/08 02:20:47;;;;;;;;;;;;;;;18.55;41.33;101023.69;7291197;19;152406;-52
2022/01/08 02:23:14;;;;;;;;;;;;;;;18.50;41.39;101016.13;7286144;19;153893;-51
2022/01/08 02:25:41;;;;;;;;;;;;;;;18.48;41.53;101007.22;7286041;19;153715;-51
2022/01/08 02:28:08;;;;;;;;;;;;;;;18.49;41.75;101008.03;7284362;19;151913;-51
2022/01/08 02:30:35;;;;;;;;;;;;;;;18.45;41.80;101004.16;7286376;19;153479;-51
2022/01/08 02:33:02;;;;;;;;;;;;;;;18.41;41.79;101000.28;7283313;19;153418;-51
2022/01/08 02:35:30;;;;;;;;;;;;;;;18.37;42.11;101004.78;7285045;19;151841;-51
2022/01/08 02:37:57;;;;;;;;;;;;;;;18.35;42.16;100990.28;7286524;19;152622;-51
2022/01/08 02:40:24;;;;;;;;;;;;;;;18.31;42.03;100973.22;7290709;19;154172;-51
2022/01/08 02:43:00;;;;;;;;;;;;;;;18.30;41.99;100970.75;7286324;19;151781;-50
2022/01/08 02:45:27;;;;;;;;;;;;;;;18.29;42.35;100969.91;7282915;19;153942;-51
2022/01/08 02:47:55;;;;;;;;;;;;;;;18.29;42.36;100963.47;7284564;19;152734;-51
2022/01/08 02:50:23;;;;;;;;;;;;;;;18.22;42.34;100972.19;7283675;19;153262;-51
2022/01/08 02:52:50;;;;;;;;;;;;;;;18.21;42.49;100970.53;7280280;19;153528;-51
2022/01/08 02:55:19;;;;;;;;;;;;;;;18.19;42.33;100978.38;7285125;19;152203;-51
2022/01/08 02:57:46;;;;;;;;;;;;;;;18.14;42.54;100976.44;7283872;19;153226;-51
2022/01/08 03:00:14;;;;;;;;;;;;;;;18.13;42.33;100965.53;7284254;19;153961;-51
2022/01/08 03:02:42;;;;;;;;;;;;;;;18.08;42.42;100960.81;7293115;19;151878;-51
2022/01/08 03:05:11;;;;;;;;;;;;;;;18.07;42.45;100950.78;7284329;19;154075;-51
2022/01/08 03:07:38;;;;;;;;;;;;;;;18.06;42.62;100948.28;7279325;19;152030;-51
2022/01/08 03:10:06;;;;;;;;;;;;;;;18.03;42.43;100944.13;7283977;19;154027;-52
2022/01/08 03:12:33;;;;;;;;;;;;;;;18.02;43.02;100950.81;7283743;19;153491;-51
2022/01/08 03:15:00;;;;;;;;;;;;;;;17.98;42.92;100952.53;7283161;19;151850;-52
2022/01/08 03:17:28;;;;;;;;;;;;;;;17.97;42.94;100938.84;7284880;19;153488;-51
2022/01/08 03:20:02;;;;;;;;;;;;;;;17.93;42.55;100934.97;7283633;19;153514;-50
2022/01/08 03:22:30;;;;;;;;;;;;;;;17.93;42.73;100932.16;7283314;19;152152;-51
2022/01/08 03:24:57;;;;;;;;;;;;;;;17.88;42.85;100919.06;7291810;19;152791;-51
2022/01/08 03:27:24;;;;;;;;;;;;;;;17.88;42.81;100909.84;7285685;19;151963;-51
2022/01/08 03:29:51;;;;;;;;;;;;;;;17.87;43.04;100905.38;7285880;19;152799;-51
2022/01/08 03:32:18;;;;;;;;;;;;;;;17.87;43.08;100899.78;7283492;19;153436;-52
2022/01/08 03:34:45;;;;;;;;;;;;;;;17.86;43.06;100907.34;7282896;19;152056;-51
2022/01/08 03:37:12;;;;;;;;;;;;;;;17.81;43.23;100907.38;7281991;19;152593;-50
2022/01/08 03:39:40;;;;;;;;;;;;;;;17.79;43.27;100904.03;7282312;19;153367;-51
2022/01/08 03:42:07;;;;;;;;;;;;;;;17.79;43.31;100901.25;7285043;19;152101;-51
2022/01/08 03:44:34;;;;;;;;;;;;;;;17.72;43.21;100904.38;7282557;19;153260;-51
2022/01/08 03:47:23;;;;;;;;;;;;;;;17.77;43.19;100893.16;7287593;19;153632;-51
2022/01/08 03:49:49;;;;;;;;;;;;;;;17.75;43.37;100891.78;7282380;19;152903;-51
2022/01/08 03:52:16;;;;;;;;;;;;;;;17.71;42.98;100893.50;7280266;19;153479;-51
2022/01/08 03:54:43;;;;;;;;;;;;;;;17.68;43.42;100882.88;7285132;19;151920;-51
2022/01/08 03:57:10;;;;;;;;;;;;;;;17.67;43.03;100875.66;7284547;19;152604;-50
2022/01/08 03:59:37;;;;;;;;;;;;;;;17.65;43.32;100870.34;7280691;19;154532;-51
2022/01/08 04:02:04;;;;;;;;;;;;;;;17.64;43.54;100873.41;7284612;19;152022;-51
2022/01/08 04:04:32;;;;;;;;;;;;;;;17.60;43.71;100870.38;7282113;19;152841;-51
2022/01/08 04:06:59;;;;;;;;;;;;;;;17.57;43.55;100859.75;7280447;19;154148;-51
2022/01/08 04:09:26;;;;;;;;;;;;;;;17.58;43.60;100855.00;7292564;19;152187;-50
2022/01/08 04:11:55;;;;;;;;;;;;;;;17.56;43.55;100849.72;7281750;19;153954;-50
2022/01/08 04:14:22;;;;;;;;;;;;;;;17.53;43.41;100846.66;7284520;19;151893;-51
2022/01/08 04:16:52;;;;;;;;;;;;;;;17.52;43.42;100834.66;7283745;19;153290;-51
2022/01/08 04:19:19;;;;;;;;;;;;;;;17.50;43.67;100819.28;7279320;19;152166;-51
2022/01/08 04:24:17;;;;;;;;;;;;;;;17.49;44.02;100800.91;7282233;19;152860;-52
2022/01/08 04:26:44;;;;;;;;;;;;;;;17.46;43.70;100788.31;7280308;19;152330;-52
2022/01/08 04:29:11;;;;;;;;;;;;;;;17.47;43.48;100781.63;7291336;19;152600;-51
2022/01/08 04:31:38;;;;;;;;;;;;;;;17.42;43.72;100778.88;7279957;19;153398;-52
2022/01/08 04:34:05;;;;;;;;;;;;;;;17.40;43.63;100797.88;7280813;19;151838;-51
2022/01/08 04:36:32;;;;;;;;;;;;;;;17.40;43.74;100802.66;7282808;19;153439;-51
2022/01/08 04:38:59;;;;;;;;;;;;;;;17.40;43.76;100794.25;7281672;19;153283;-51
2022/01/08 04:41:27;;;;;;;;;;;;;;;17.33;43.88;100775.03;7282998;19;152135;-51
2022/01/08 04:43:54;;;;;;;;;;;;;;;17.33;44.04;100758.28;7282963;19;152937;-51
2022/01/08 04:46:21;;;;;;;;;;;;;;;17.34;44.01;100757.16;7280027;19;153400;-51
2022/01/08 04:48:48;;;;;;;;;;;;;;;17.29;43.98;100746.88;7283502;19;152058;-51
2022/01/08 04:51:15;;;;;;;;;;;;;;;17.29;44.22;100738.50;7288896;19;153471;-52
2022/01/08 04:53:42;;;;;;;;;;;;;;;17.27;43.72;100735.13;7279724;19;151841;-51
2022/01/08 04:56:15;;;;;;;;;;;;;;;17.29;44.20;100743.25;7281024;19;153361;-52
2022/01/08 04:58:42;;;;;;;;;;;;;;;17.26;43.90;100741.03;7282189;19;153543;-52
2022/01/08 05:01:12;;;;;;;;;;;;;;;17.24;44.12;100729.31;7280076;19;154704;-51
2022/01/08 05:03:39;;;;;;;;;;;;;;;17.22;43.96;100731.56;7284124;19;152153;-52
2022/01/08 05:06:06;;;;;;;;;;;;;;;17.19;44.11;100720.97;7278035;19;154661;-51
2022/01/08 05:08:33;;;;;;;;;;;;;;;17.18;44.20;100719.31;7280833;19;151508;-51
2022/01/08 05:11:01;;;;;;;;;;;;;;;17.17;44.28;100692.53;7280982;19;152858;-51
2022/01/08 05:13:31;;;;;;;;;;;;;;;17.16;44.29;100690.88;7283883;19;153019;-51
2022/01/08 05:15:59;;;;;;;;;;;;;;;17.15;44.35;100687.22;7279513;19;152505;-51
2022/01/08 05:18:30;;;;;;;;;;;;;;;17.14;44.30;100691.16;7280135;19;154268;-52
2022/01/08 05:21:10;;;;;;;;;;;;;;;17.14;44.54;100679.97;7281913;19;151553;-52
2022/01/08 05:23:37;;;;;;;;;;;;;;;17.10;44.75;100678.91;7279489;19;153519;-51
2022/01/08 05:26:04;;;;;;;;;;;;;;;17.09;44.82;100668.03;7280129;19;153836;-51
2022/01/08 05:28:31;;;;;;;;;;;;;;;17.10;44.36;100670.53;7280899;19;152017;-51
2022/01/08 05:30:58;;;;;;;;;;;;;;;17.09;44.37;100665.22;7279475;19;153346;-52
2022/01/08 05:33:26;;;;;;;;;;;;;;;17.10;45.03;100648.19;7275819;19;154195;-51
2022/01/08 05:35:53;;;;;;;;;;;;;;;17.07;44.63;100643.22;7288138;19;152590;-52
2022/01/08 05:38:20;;;;;;;;;;;;;;;17.06;44.92;100643.50;7278746;19;154041;-52
2022/01/08 05:40:47;;;;;;;;;;;;;;;17.00;44.86;100641.84;7280930;19;152746;-52
2022/01/08 05:43:14;;;;;;;;;;;;;;;17.00;44.97;100639.06;7281389;19;153234;-51
2022/01/08 05:45:42;;;;;;;;;;;;;;;16.99;44.89;100637.44;7279483;19;152378;-52
2022/01/08 05:48:09;;;;;;;;;;;;;;;16.96;44.94;100633.25;7278459;19;151887;-52
2022/01/08 05:50:36;;;;;;;;;;;;;;;16.96;44.78;100629.63;7279948;19;152891;-52
2022/01/08 05:53:03;;;;;;;;;;;;;;;16.94;45.08;100634.69;7273818;19;153885;-51
2022/01/08 05:55:30;;;;;;;;;;;;;;;16.90;45.36;100629.66;7276841;19;152016;-51
2022/01/08 05:57:57;;;;;;;;;;;;;;;16.92;44.96;100618.22;7285106;19;153298;-52
2022/01/08 06:00:24;;;;;;;;;;;;;;;16.89;45.34;100625.22;7281038;19;152392;-52
2022/01/08 06:02:52;;;;;;;;;;;;;;;16.90;45.25;100621.28;7279658;19;152823;-51
2022/01/08 06:05:19;;;;;;;;;;;;;;;16.91;45.16;100610.97;7280101;19;153770;-51
2022/01/08 06:07:46;;;;;;;;;;;;;;;16.91;45.16;100610.97;7278848;19;152170;-51
2022/01/08 06:10:13;;;;;;;;;;;;;;;16.87;45.15;100605.13;7279743;19;153807;-51
2022/01/08 06:12:40;;;;;;;;;;;;;;;16.94;45.38;100595.63;7278607;19;153974;-51
2022/01/08 06:15:08;;;;;;;;;;;;;;;16.98;45.35;100591.94;7280565;19;151603;-52
2022/01/08 06:17:35;;;;;;;;;;;;;;;17.03;45.90;100577.09;7280427;19;153082;-52
2022/01/08 06:20:03;;;;;;;;;;;;;;;17.06;45.89;100566.19;7284530;19;154437;-52
2022/01/08 06:22:30;;;;;;;;;;;;;;;17.10;45.87;100564.47;7279071;19;152874;-52
2022/01/08 06:24:57;;;;;;;;;;;;;;;17.15;46.11;100556.03;7279162;19;153585;-52
2022/01/08 06:27:24;;;;;;;;;;;;;;;17.19;46.12;100545.09;7280161;19;152105;-52
2022/01/08 06:29:51;;;;;;;;;;;;;;;17.24;46.72;100548.69;7277047;19;153630;-51
2022/01/08 06:32:20;;;;;;;;;;;;;;;17.29;46.72;100536.63;7278826;19;154200;-51
2022/01/08 06:34:47;;;;;;;;;;;;;;;17.34;46.76;100523.44;7277536;19;152239;-52
2022/01/08 06:37:14;;;;;;;;;;;;;;;17.41;46.67;100516.66;7279430;19;153009;-51
2022/01/08 06:39:41;;;;;;;;;;;;;;;17.47;46.72;100504.28;7286758;19;152562;-52
2022/01/08 06:42:08;;;;;;;;;;;;;;;17.55;47.04;100498.88;7283105;19;152688;-52
2022/01/08 06:44:35;;;;;;;;;;;;;;;17.61;46.84;100499.69;7285343;19;153420;-52
2022/01/08 06:47:03;;;;;;;;;;;;;;;17.66;46.97;100486.47;7284876;19;152032;-52
2022/01/08 06:49:31;;;;;;;;;;;;;;;17.73;46.87;100478.53;7285007;19;153711;-52
2022/01/08 06:51:58;;;;;;;;;;;;;;;17.80;46.59;100469.81;7283305;19;153699;-52
2022/01/08 06:54:25;;;;;;;;;;;;;;;17.89;46.68;100462.41;7284609;19;151815;-56
2022/01/08 06:56:52;;;;;;;;;;;;;;;17.97;46.66;100464.50;7285847;19;153420;-50
2022/01/08 06:59:20;;;;;;;;;;;;;;;18.03;46.23;100454.09;7284230;19;152196;-51
2022/01/08 07:01:47;;;;;;;;;;;;;;;18.08;45.95;100463.19;7292072;19;152306;-62
2022/01/08 07:04:14;;;;;;;;;;;;;;;18.14;46.22;100444.38;7283968;19;154335;-50
2022/01/08 07:06:41;;;;;;;;;;;;;;;18.19;45.76;100447.94;7282214;19;152137;-50
2022/01/08 07:09:08;;;;;;;;;;;;;;;18.25;46.02;100443.09;7282786;19;152876;-50
2022/01/08 07:11:35;;;;;;;;;;;;;;;18.31;45.64;100432.63;7284802;19;153441;-50
2022/01/08 07:14:02;;;;;;;;;;;;;;;18.37;45.92;100425.81;7282884;19;152414;-50
2022/01/08 07:16:30;;;;;;;;;;;;;;;18.44;45.39;100423.47;7285232;19;153306;-50
2022/01/08 07:18:57;;;;;;;;;;;;;;;18.49;45.26;100415.78;7283484;19;154405;-50
2022/01/08 07:21:25;;;;;;;;;;;;;;;18.54;45.20;100412.09;7285020;19;152124;-51
2022/01/08 07:23:53;;;;;;;;;;;;;;;18.60;45.49;100400.50;7288024;19;153495;-50
2022/01/08 07:26:21;;;;;;;;;;;;;;;18.67;45.59;100389.72;7284402;19;152189;-50
2022/01/08 07:28:48;;;;;;;;;;;;;;;18.72;45.15;100374.81;7285604;19;153899;-50
2022/01/08 07:31:15;;;;;;;;;;;;;;;18.77;45.49;100362.69;7283198;19;153071;-50
2022/01/08 07:33:42;;;;;;;;;;;;;;;18.84;45.17;100372.34;7281424;19;151945;-51
2022/01/08 07:36:09;;;;;;;;;;;;;;;18.89;45.14;100365.81;7282961;19;152882;-50
2022/01/08 07:38:36;;;;;;;;;;;;;;;18.93;44.82;100353.69;7284138;19;153479;-50
2022/01/08 07:41:03;;;;;;;;;;;;;;;18.99;45.28;100351.59;7284341;19;151633;-51
2022/01/08 07:43:30;;;;;;;;;;;;;;;19.04;44.99;100346.72;7283041;19;154186;-50
2022/01/08 07:45:58;;;;;;;;;;;;;;;19.09;44.86;100351.38;7291287;19;154271;-50
2022/01/08 07:48:25;;;;;;;;;;;;;;;19.15;45.06;100343.69;7284319;19;153407;-50
2022/01/08 07:50:52;;;;;;;;;;;;;;;19.18;45.03;100332.69;7283707;19;153569;-50
2022/01/08 07:53:19;;;;;;;;;;;;;;;19.24;44.90;100319.41;7281972;19;151823;-50
2022/01/08 07:55:47;;;;;;;;;;;;;;;19.28;44.82;100320.44;7283818;19;152758;-50
2022/01/08 07:58:16;;;;;;;;;;;;;;;19.33;44.53;100306.31;7282184;19;154431;-50
2022/01/08 08:00:43;;;;;;;;;;;;;;;19.36;44.42;100300.91;7283981;19;152259;-50
2022/01/08 08:03:10;;;;;;;;;;;;;;;19.40;44.43;100299.13;7284093;19;152909;-50
2022/01/08 08:05:37;;;;;;;;;;;;;;;19.45;44.58;100281.38;7283291;19;153273;-51
2022/01/08 08:08:04;;;;;;;;;;;;;;;19.48;44.62;100272.38;7289182;19;152173;-50
2022/01/08 08:10:32;;;;;;;;;;;;;;;19.52;44.42;100267.78;7281002;19;153465;-50
2022/01/08 08:13:00;;;;;;;;;;;;;;;19.57;44.02;100259.25;7283272;19;151996;-50
2022/01/08 08:15:27;;;;;;;;;;;;;;;19.60;43.84;100260.56;7283025;19;152921;-51
2022/01/08 08:17:54;;;;;;;;;;;;;;;19.62;44.16;100250.72;7282299;19;153426;-50
2022/01/08 08:20:21;;;;;;;;;;;;;;;19.66;44.28;100248.94;7283203;19;152293;-50
2022/01/08 08:22:48;;;;;;;;;;;;;;;19.68;44.14;100229.81;7281694;19;152885;-50
2022/01/08 08:25:16;;;;;;;;;;;;;;;19.71;43.81;100225.53;7279748;19;154501;-50
2022/01/08 08:27:43;;;;;;;;;;;;;;;19.71;43.61;100226.38;7283621;19;152179;-50
2022/01/08 08:30:10;;;;;;;;;;;;;;;19.73;43.92;100214.81;7290719;19;153765;-50
2022/01/08 08:32:38;;;;;;;;;;;;;;;19.75;43.88;100210.56;7283168;19;151899;-51
2022/01/08 08:35:06;;;;;;;;;;;;;;;19.76;43.96;100203.00;7278277;19;153056;-51
2022/01/08 08:37:34;;;;;;;;;;;;;;;19.76;43.78;100191.78;7281751;19;153044;-51
2022/01/08 08:40:08;;;;;;;;;;;;;;;19.76;43.50;100189.78;7283232;19;152099;-50
2022/01/08 08:42:36;;;;;;;;;;;;;;;19.75;43.40;100185.34;7281242;19;153317;-50
2022/01/08 08:45:03;;;;;;;;;;;;;;;19.74;43.62;100172.47;7280234;19;153284;-51
2022/01/08 08:47:31;;;;;;;;;;;;;;;19.74;43.86;100161.25;7282505;19;151824;-50
2022/01/08 08:49:59;;;;;;;;;;;;;;;19.73;43.88;100154.00;7289891;19;153331;-51
2022/01/08 08:52:26;;;;;;;;;;;;;;;19.72;43.81;100152.34;7283540;19;151875;-50
2022/01/08 08:54:53;;;;;;;;;;;;;;;19.71;43.49;100139.50;7280385;19;153506;-50
2022/01/08 08:57:21;;;;;;;;;;;;;;;19.69;44.07;100127.75;7281560;19;154224;-51
2022/01/08 08:59:48;;;;;;;;;;;;;;;19.67;43.93;100132.84;7283059;19;151600;-50
2022/01/08 09:02:15;;;;;;;;;;;;;;;19.66;43.95;100136.84;7281995;19;151889;-51
2022/01/08 09:04:42;;;;;;;;;;;;;;;19.64;43.96;100125.09;7281116;19;153436;-51
2022/01/08 09:07:10;;;;;;;;;;;;;;;19.63;43.72;100123.44;7282164;19;151859;-51
2022/01/08 09:09:37;;;;;;;;;;;;;;;19.61;43.75;100122.13;7281986;19;153432;-51
2022/01/08 09:12:04;;;;;;;;;;;;;;;19.60;43.88;100107.28;7286097;19;154129;-50
2022/01/08 09:14:31;;;;;;;;;;;;;;;19.59;43.89;100099.19;7281179;19;153556;-51
2022/01/08 09:17:02;;;;;;;;;;;;;;;19.58;43.67;100095.56;7282306;19;153578;-51
2022/01/08 09:19:29;;;;;;;;;;;;;;;19.55;43.93;100079.41;7284289;19;151993;-51
2022/01/08 09:21:56;;;;;;;;;;;;;;;19.54;43.91;100077.75;7282585;19;153224;-51
2022/01/08 09:24:23;;;;;;;;;;;;;;;19.51;44.11;100070.00;7280445;19;154246;-51
2022/01/08 09:26:50;;;;;;;;;;;;;;;19.49;44.23;100066.69;7281985;19;152212;-51
2022/01/08 09:29:18;;;;;;;;;;;;;;;19.47;43.99;100054.97;7280362;19;154460;-51
2022/01/08 09:31:45;;;;;;;;;;;;;;;19.44;44.54;100044.44;7279794;19;154007;-51
2022/01/08 09:34:12;;;;;;;;;;;;;;;19.41;44.09;100029.06;7284936;19;152281;-51
2022/01/08 09:36:39;;;;;;;;;;;;;;;19.40;44.70;100029.38;7278863;19;153582;-51
2022/01/08 09:39:07;;;;;;;;;;;;;;;19.36;44.36;100017.16;7280920;19;151994;-51
2022/01/08 09:41:35;;;;;;;;;;;;;;;19.34;44.86;100013.88;7278892;19;153570;-51
2022/01/08 09:44:03;;;;;;;;;;;;;;;19.32;44.53;100008.59;7278254;19;153404;-50
2022/01/08 09:46:30;;;;;;;;;;;;;;;19.30;44.69;99994.09;7281765;19;151891;-51
2022/01/08 09:48:57;;;;;;;;;;;;;;;19.27;44.81;99983.53;7279925;19;153396;-50
2022/01/08 09:51:26;;;;;;;;;;;;;;;19.26;45.21;99972.66;7279580;19;154337;-50
2022/01/08 09:53:54;;;;;;;;;;;;;;;19.23;45.11;99971.31;7278578;19;151911;-50
2022/01/08 09:56:25;;;;;;;;;;;;;;;19.24;45.65;99958.13;7286796;19;153433;-51
2022/01/08 09:58:52;;;;;;;;;;;;;;;19.22;45.99;99955.66;7279939;19;152027;-52
2022/01/08 10:01:24;;;;;;;;;;;;;;;19.19;46.22;99947.09;7281005;19;153343;-51
2022/01/08 10:03:52;;;;;;;;;;;;;;;19.12;45.98;99941.97;7279183;19;153953;-52
2022/01/08 10:06:22;;;;;;;;;;;;;;;19.14;45.37;99933.22;7279362;19;153676;-52
2022/01/08 10:08:49;;;;;;;;;;;;;;;19.14;45.53;99931.25;7274248;19;151812;-52
2022/01/08 10:11:19;;;;;;;;;;;;;;;19.13;45.20;99918.41;7277087;19;154047;-52
2022/01/08 10:13:48;;;;;;;;;;;;;;;19.09;44.99;99909.00;7278849;19;151761;-52
2022/01/08 10:18:49;;;;;;;;;;;;;;;19.11;44.77;99895.50;7292184;19;153200;-52
2022/01/08 10:21:19;;;;;;;;;;;;;;;19.11;44.25;99884.31;7285818;19;152052;-52
2022/01/08 10:23:48;;;;;;;;;;;;;;;19.14;44.61;99883.66;7285234;19;153694;-52
2022/01/08 10:26:17;;;;;;;;;;;;;;;19.14;44.58;99866.03;7284485;19;152267;-52
2022/01/08 10:28:46;;;;;;;;;;;;;;;19.14;44.35;99863.22;7284559;19;151953;-52
2022/01/08 10:31:17;;;;;;;;;;;;;;;19.17;44.34;99854.19;7283327;19;153514;-52
2022/01/08 10:33:46;;;;;;;;;;;;;;;19.19;44.27;99837.88;7283479;19;152742;-52
2022/01/08 10:36:13;;;;;;;;;;;;;;;19.24;44.26;99820.94;7285791;19;152038;-51
2022/01/08 10:38:41;;;;;;;;;;;;;;;19.26;44.43;99822.22;7282673;19;153528;-52
2022/01/08 10:41:12;;;;;;;;;;;;;;;19.30;44.08;99800.84;7289409;19;152149;-52
2022/01/08 10:43:40;;;;;;;;;;;;;;;19.35;44.36;99794.25;7281388;19;154399;-51
2022/01/08 10:46:10;;;;;;;;;;;;;;;19.37;44.03;99781.56;7282931;19;152111;-56
2022/01/08 10:48:37;;;;;;;;;;;;;;;19.21;44.94;99780.41;7282438;19;153925;-51
2022/01/08 10:51:07;;;;;;;;;;;;;;;19.31;44.90;99765.25;7281407;19;153275;-52
2022/01/08 10:53:55;;;;;;;;;;;;;;;19.39;44.94;99761.63;7285026;19;151839;-52
2022/01/08 10:56:23;;;;;;;;;;;;;;;19.43;44.69;99757.88;7281743;19;154893;-51
2022/01/08 10:58:52;;;;;;;;;;;;;;;19.47;44.64;99747.66;7279608;19;153415;-52
2022/01/08 11:01:23;;;;;;;;;;;;;;;19.48;44.54;99726.91;7288651;19;152618;-52
2022/01/08 11:03:50;;;;;;;;;;;;;;;19.53;44.57;99723.09;7283648;19;153793;-52
2022/01/08 11:06:17;;;;;;;;;;;;;;;19.57;44.47;99709.25;7280544;19;152400;-51
2022/01/08 11:08:58;;;;;;;;;;;;;;;19.61;43.91;99702.66;7280742;19;152879;-52
2022/01/08 11:11:29;;;;;;;;;;;;;;;19.64;44.10;99693.56;7279395;19;154295;-52
2022/01/08 11:14:06;;;;;;;;;;;;;;;19.67;44.10;99686.50;7278873;19;152520;-51
2022/01/08 11:16:35;;;;;;;;;;;;;;;19.72;43.69;99678.72;7280766;19;152176;-52
2022/01/08 11:19:03;;;;;;;;;;;;;;;19.75;44.08;99663.22;7277000;19;153516;-52
2022/01/08 11:21:31;;;;;;;;;;;;;;;19.78;43.62;99645.72;7280010;19;152254;-51
2022/01/08 11:24:00;;;;;;;;;;;;;;;19.80;43.69;99641.44;7283312;19;154051;-52
2022/01/08 11:26:27;;;;;;;;;;;;;;;19.83;43.79;99632.38;7279585;19;152585;-52
2022/01/08 11:28:58;;;;;;;;;;;;;;;19.85;43.88;99629.22;7277429;19;154178;-52
2022/01/08 11:31:29;;;;;;;;;;;;;;;19.90;43.47;99618.63;7278475;19;153632;-52
2022/01/08 11:34:01;;;;;;;;;;;;;;;19.91;43.45;99600.66;7280052;19;153622;-51
2022/01/08 11:36:30;;;;;;;;;;;;;;;19.95;43.43;99596.03;7275939;19;152183;-51
2022/01/08 11:38:57;;;;;;;;;;;;;;;19.98;43.58;99577.72;7277133;19;153788;-52
2022/01/08 11:41:25;;;;;;;;;;;;;;;20.01;43.66;99576.22;7279296;19;152223;-52
2022/01/08 11:43:53;;;;;;;;;;;;;;;20.04;43.36;99558.69;7278831;19;154017;-51
2022/01/08 11:46:21;;;;;;;;;;;;;;;20.08;43.36;99556.88;7285937;19;153844;-51
2022/01/08 11:48:51;;;;;;;;;;;;;;;20.10;43.42;99540.53;7249024;19;155789;-52
2022/01/08 11:51:20;;;;;;;;;;;;;;;20.10;43.37;99540.53;7276353;19;153572;-52
2022/01/08 11:53:48;;;;;;;;;;;;;;;20.13;43.62;99523.00;7281885;19;151858;-52
2022/01/08 11:56:19;;;;;;;;;;;;;;;20.14;43.23;99519.88;7280271;19;151836;-52
2022/01/08 11:58:57;;;;;;;;;;;;;;;20.18;43.60;99511.59;7280651;19;153988;-52
2022/01/08 12:01:24;;;;;;;;;;;;;;;20.20;43.41;99507.31;7281512;19;152649;-52
2022/01/08 12:03:52;;;;;;;;;;;;;;;20.23;43.24;99502.97;7280849;19;153237;-51
2022/01/08 12:08:56;;;;;;;;;;;;;;;20.27;43.52;99478.69;7286087;19;151765;-51
2022/01/08 12:11:24;;;;;;;;;;;;;;;20.30;43.37;99466.84;7279446;19;154285;-52
2022/01/08 12:13:52;;;;;;;;;;;;;;;20.32;43.50;99454.09;7278528;19;152038;-51
2022/01/08 12:16:22;;;;;;;;;;;;;;;20.35;43.06;99450.59;7279009;19;152842;-52
2022/01/08 12:18:53;;;;;;;;;;;;;;;20.35;43.42;99445.00;7279252;19;153652;-52
2022/01/08 12:21:23;;;;;;;;;;;;;;;20.37;43.24;99428.66;7279020;19;152285;-52
2022/01/08 12:23:50;;;;;;;;;;;;;;;20.41;43.31;99434.38;7281220;19;152637;-52
2022/01/08 12:26:19;;;;;;;;;;;;;;;20.44;43.25;99421.69;7280098;19;153309;-52
2022/01/08 12:28:46;;;;;;;;;;;;;;;20.44;43.46;99411.28;7283825;19;152171;-52
2022/01/08 12:31:17;;;;;;;;;;;;;;;20.47;43.34;99420.97;7288004;19;153408;-52
2022/01/08 12:33:45;;;;;;;;;;;;;;;20.47;43.33;99416.19;7278634;19;152095;-51
2022/01/08 12:36:19;;;;;;;;;;;;;;;20.53;43.10;99391.53;7277160;19;152366;-52
2022/01/08 12:38:59;;;;;;;;;;;;;;;20.52;43.20;99379.50;7279069;19;154285;-52
2022/01/08 12:41:26;;;;;;;;;;;;;;;20.57;42.99;99367.22;7279341;19;152195;-52
2022/01/08 12:43:54;;;;;;;;;;;;;;;20.58;42.88;99336.00;7282466;19;152016;-52
2022/01/08 12:46:23;;;;;;;;;;;;;;;20.58;43.26;99313.56;7278870;19;154224;-52
2022/01/08 12:48:53;;;;;;;;;;;;;;;20.59;42.83;99295.56;7277206;19;152301;-52
2022/01/08 12:51:24;;;;;;;;;;;;;;;20.62;43.19;99288.44;7274077;19;152362;-52
2022/01/08 12:54:00;;;;;;;;;;;;;;;20.62;42.79;99266.00;7285936;19;152501;-52
2022/01/08 12:56:27;;;;;;;;;;;;;;;20.63;42.59;99293.69;7277867;19;153625;-52
2022/01/08 12:58:56;;;;;;;;;;;;;;;20.66;43.62;99278.16;7276574;19;154163;-52